Hamnavoe — VSTY7 — position and weather

sailwx.info

Track history (hours):
 
Tides and Currents Weather Stations Pressure Air Temp Water Temp Dewpoint Dewpoint Depression Visibility Wind Speed Wind Dir Waves Ship Positions

Hamnavoe

Operator: NorthLink Orkey & Shetland Ferries Ltd

Last reported at 2014-Jul-29 22:33 UTC. Time now 2014-Jul-29 22:54 UTC.
Position N 58°58' W 003°18'.

Length 112 m; draft 4.4 m.

Type: Ship. MMSI: 235449000.

Date/timePositionNaut miles runAvg speedWind from/ knotsBaromVisibWave heightAir tempDewpointWater temp
2014-Jul-29 22:33N 58°58' W 003°18'0 0.0
2014-Jul-29 21:33N 58°58' W 003°18'0 0.0
2014-Jul-29 20:33N 58°58' W 003°18'0 0.0
2014-Jul-29 19:33N 58°58' W 003°18'1212.0
2014-Jul-29 18:34N 58°47' W 003°29'1110.4
2014-Jul-29 17:31N 58°37' W 003°32'1111.7
2014-Jul-29 16:33N 58°48' W 003°30'1211.9
2014-Jul-29 15:34N 58°58' W 003°18'0 0.0
2014-Jul-29 14:33N 58°58' W 003°18'0 0.4
2014-Jul-29 13:33N 58°57' W 003°18'1515.1
2014-Jul-29 12:33N 58°44' W 003°30'7 7.2
2014-Jul-29 11:33N 58°37' W 003°32'1615.8
2014-Jul-29 10:33N 58°52' W 003°28'8 7.6
2014-Jul-29 09:33N 58°58' W 003°18'8 8.0
2014-Jul-29 08:33N 58°52' W 003°28'1515.0
2014-Jul-29 07:33N 58°37' W 003°32'7 7.2
2014-Jul-29 06:33N 58°44' W 003°31'1515.3
2014-Jul-29 05:33N 58°58' W 003°18'0 0.3
2014-Jul-29 04:30N 58°58' W 003°18'0 0.0
2014-Jul-29 03:18N 58°58' W 003°18'0 0.0
2014-Jul-29 02:24N 58°58' W 003°18'0 0.0
2014-Jul-29 01:24N 58°58' W 003°18'0 0.0
2014-Jul-29 00:30N 58°58' W 003°18'0 0.0
2014-Jul-28 23:30N 58°58' W 003°18'0 0.0
2014-Jul-28 22:30N 58°58' W 003°18'0 0.0
2014-Jul-28 21:30N 58°58' W 003°18'0 0.0
2014-Jul-28 20:24N 58°58' W 003°18'0 0.0
2014-Jul-28 19:33N 58°58' W 003°18'1313.3
2014-Jul-28 18:33N 58°46' W 003°29'9 9.3
2014-Jul-28 17:33N 58°37' W 003°32'1110.9
2014-Jul-28 16:34N 58°47' W 003°28'1211.5
2014-Jul-28 15:32N 58°58' W 003°18'0 0.0
2014-Jul-28 14:32N 58°58' W 003°18'1 0.9
2014-Jul-28 13:33N 58°57' W 003°17'1615.6
2014-Jul-28 12:33N 58°43' W 003°30'6 6.0
2014-Jul-28 11:31N 58°37' W 003°32'1515.3
2014-Jul-28 10:33N 58°51' W 003°28'9 8.5
2014-Jul-28 09:33N 58°58' W 003°18'8 8.0
2014-Jul-28 08:33N 58°52' W 003°28'1513.5
2014-Jul-28 07:25N 58°37' W 003°32'7 8.5
2014-Jul-28 06:33N 58°44' W 003°31'1515.2
2014-Jul-28 05:33N 58°58' W 003°18'0 0.3
2014-Jul-28 04:33N 58°58' W 003°18'0 0.0
2014-Jul-28 03:33N 58°58' W 003°18'0 0.0
2014-Jul-28 02:33N 58°58' W 003°18'0 0.0
2014-Jul-28 01:33N 58°58' W 003°18'0 0.0
2014-Jul-28 00:33N 58°58' W 003°18'0 0.0
2014-Jul-27 22:21N 58°58' W 003°18'0 0.0
2014-Jul-27 21:33N 58°58' W 003°18'0 0.0
2014-Jul-27 20:09N 58°58' W 003°18'0 0.0
2014-Jul-27 19:33N 58°58' W 003°18'1111.1
2014-Jul-27 18:33N 58°48' W 003°29'1211.6
2014-Jul-27 17:33N 58°37' W 003°32'1111.5
2014-Jul-27 16:33N 58°48' W 003°29'1111.4
2014-Jul-27 15:33N 58°58' W 003°18'0 0.0
2014-Jul-27 14:33N 58°58' W 003°18'0 0.0
2014-Jul-27 13:33N 58°58' W 003°18'0 0.0
2014-Jul-27 12:33N 58°58' W 003°18'1111.5
2014-Jul-27 11:33N 58°48' W 003°28'1111.2
2014-Jul-27 10:33N 58°37' W 003°32'0 0.0
2014-Jul-27 09:33N 58°37' W 003°32'1515.4
2014-Jul-27 08:33N 58°52' W 003°28'8 7.7
2014-Jul-27 07:30N 58°58' W 003°18'0 0.0
2014-Jul-27 06:33N 58°58' W 003°18'0 0.0
2014-Jul-27 05:30N 58°58' W 003°18'0 0.0
2014-Jul-27 04:33N 58°58' W 003°18'0 0.0
2014-Jul-27 03:33N 58°58' W 003°18'0 0.0
2014-Jul-27 02:33N 58°58' W 003°18'0 0.0
2014-Jul-27 01:33N 58°58' W 003°18'0 0.0
2014-Jul-27 00:30N 58°58' W 003°18'0 0.0
2014-Jul-26 23:30N 58°58' W 003°18'0 0.0
2014-Jul-26 22:30N 58°58' W 003°18'0 0.0
2014-Jul-26 21:24N 58°58' W 003°18'0 0.0
2014-Jul-26 20:30N 58°58' W 003°18'0 0.0
2014-Jul-26 19:31N 58°58' W 003°18'1111.6
2014-Jul-26 18:34N 58°48' W 003°28'1211.8
2014-Jul-26 17:34N 58°37' W 003°32'10 9.7
2014-Jul-26 16:33N 58°46' W 003°28'1312.9
2014-Jul-26 15:33N 58°58' W 003°18'0 0.0
2014-Jul-26 14:33N 58°58' W 003°18'1 1.1
2014-Jul-26 13:33N 58°57' W 003°18'1616.2
2014-Jul-26 12:33N 58°42' W 003°30'5 5.4
2014-Jul-26 11:33N 58°37' W 003°32'1515.5
2014-Jul-26 10:33N 58°52' W 003°27'8 7.7
2014-Jul-26 09:33N 58°58' W 003°18'8 8.5
2014-Jul-26 08:33N 58°51' W 003°28'1514.9
2014-Jul-26 07:33N 58°37' W 003°32'7 6.7
2014-Jul-26 06:33N 58°43' W 003°30'1615.6
2014-Jul-26 05:33N 58°57' W 003°18'0 0.4
2014-Jul-26 04:33N 58°58' W 003°18'0 0.0
2014-Jul-26 03:33N 58°58' W 003°18'0 0.0
2014-Jul-26 02:33N 58°58' W 003°18'0 0.0
2014-Jul-26 01:30N 58°58' W 003°18'0 0.0
2014-Jul-26 00:33N 58°58' W 003°18'0 0.0
2014-Jul-25 23:30N 58°58' W 003°18'0 0.0
2014-Jul-25 22:33N 58°58' W 003°18'0 0.0
2014-Jul-25 21:21N 58°58' W 003°18'0 0.0
2014-Jul-25 20:33N 58°58' W 003°18'0 0.0
2014-Jul-25 19:33N 58°58' W 003°18'1111.4
2014-Jul-25 18:33N 58°48' W 003°29'1211.5
2014-Jul-25 17:33N 58°37' W 003°32'1010.5
2014-Jul-25 16:33N 58°47' W 003°29'1212.3
2014-Jul-25 15:33N 58°58' W 003°18'0 0.0
2014-Jul-25 14:33N 58°58' W 003°18'1 0.7
2014-Jul-25 13:33N 58°57' W 003°17'1616.2
2014-Jul-25 12:33N 58°42' W 003°30'6 5.3
2014-Jul-25 11:28N 58°37' W 003°32'1516.4
2014-Jul-25 10:33N 58°51' W 003°27'8 7.9
2014-Jul-25 09:31N 58°58' W 003°18'8 7.9
2014-Jul-25 08:33N 58°52' W 003°28'1615.5
2014-Jul-25 07:33N 58°37' W 003°32'7 6.6
2014-Jul-25 06:33N 58°43' W 003°30'1615.7
2014-Jul-25 05:33N 58°57' W 003°18'0 0.4
2014-Jul-25 04:29N 58°58' W 003°18'0 0.0
2014-Jul-25 03:29N 58°58' W 003°18'0 0.0
2014-Jul-25 02:29N 58°58' W 003°18'0 0.0
2014-Jul-25 01:29N 58°58' W 003°18'0 0.0
2014-Jul-25 00:29N 58°58' W 003°18'0 0.0
2014-Jul-24 23:29N 58°58' W 003°18'0 0.0
2014-Jul-24 22:32N 58°58' W 003°18'0 0.0
2014-Jul-24 21:29N 58°58' W 003°18'0 0.0
2014-Jul-24 20:29N 58°58' W 003°18'0 0.0
2014-Jul-24 19:29N 58°58' W 003°18'1212.6
2014-Jul-24 18:33N 58°48' W 003°29'11 8.3
2014-Jul-24 17:14N 58°37' W 003°32'1014.1
2014-Jul-24 16:33N 58°46' W 003°29'1313.1
2014-Jul-24 15:33N 58°58' W 003°18'0 0.0
2014-Jul-24 14:28N 58°58' W 003°18'1 1.2
2014-Jul-24 13:33N 58°57' W 003°18'1716.9
2014-Jul-24 12:33N 58°41' W 003°31'5 4.6
2014-Jul-24 11:33N 58°37' W 003°32'1414.2
2014-Jul-24 10:33N 58°51' W 003°29'9 9.1
2014-Jul-24 09:33N 58°58' W 003°18'7 7.5
2014-Jul-24 08:33N 58°53' W 003°28'1616.1
2014-Jul-24 07:33N 58°37' W 003°32'7 6.7
2014-Jul-24 06:33N 58°43' W 003°30'1615.5
2014-Jul-24 05:33N 58°57' W 003°18'0 0.4
2014-Jul-24 04:30N 58°58' W 003°18'0 0.0
2014-Jul-24 03:30N 58°58' W 003°18'0 0.0
2014-Jul-24 02:33N 58°58' W 003°18'0 0.0
2014-Jul-24 01:30N 58°58' W 003°18'0 0.0
2014-Jul-24 00:27N 58°58' W 003°18'0 0.0
2014-Jul-23 23:33N 58°58' W 003°18'0 0.0
2014-Jul-23 22:33N 58°58' W 003°18'0 0.0
2014-Jul-23 21:33N 58°58' W 003°18'0 0.0
2014-Jul-23 20:24N 58°58' W 003°18'0 0.0
2014-Jul-23 19:33N 58°58' W 003°18'1010.2
2014-Jul-23 18:33N 58°49' W 003°29'1312.8
2014-Jul-23 17:33N 58°37' W 003°32'10 9.8
2014-Jul-23 16:33N 58°46' W 003°30'1313.0
2014-Jul-23 15:33N 58°58' W 003°18'0 0.0
2014-Jul-23 14:32N 58°58' W 003°18'0 0.0
2014-Jul-23 13:33N 58°58' W 003°18'1514.7
2014-Jul-23 12:33N 58°44' W 003°30'8 7.7
2014-Jul-23 11:31N 58°37' W 003°32'1515.1
2014-Jul-23 10:33N 58°51' W 003°27'8 8.4
2014-Jul-23 09:34N 58°58' W 003°18'7 7.4
2014-Jul-23 08:34N 58°52' W 003°27'1615.9
2014-Jul-23 07:33N 58°37' W 003°32'6 5.8
2014-Jul-23 06:33N 58°42' W 003°29'1616.1
2014-Jul-23 05:33N 58°57' W 003°17'1 0.8
2014-Jul-23 04:31N 58°58' W 003°18'0 0.0
2014-Jul-23 03:31N 58°58' W 003°18'0 0.0
2014-Jul-23 02:31N 58°58' W 003°18'0 0.0
2014-Jul-23 01:31N 58°58' W 003°18'0 0.0
2014-Jul-23 00:25N 58°58' W 003°18'0 0.0
2014-Jul-22 23:28N 58°58' W 003°18'0 0.0
2014-Jul-22 22:28N 58°58' W 003°18'0 0.0
2014-Jul-22 21:28N 58°58' W 003°18'0 0.0
2014-Jul-22 20:28N 58°58' W 003°18'0 0.0
2014-Jul-22 19:28N 58°58' W 003°18'1112.2
2014-Jul-22 18:33N 58°48' W 003°29'12 8.9
2014-Jul-22 17:15N 58°37' W 003°32'1014.0
2014-Jul-22 16:34N 58°46' W 003°29'1313.0
2014-Jul-22 15:33N 58°58' W 003°18'0 0.0
2014-Jul-22 14:33N 58°58' W 003°18'0 0.1
2014-Jul-22 13:33N 58°58' W 003°18'1515.3
2014-Jul-22 12:33N 58°44' W 003°30'7 7.1
2014-Jul-22 11:33N 58°37' W 003°32'1414.3
2014-Jul-22 10:33N 58°51' W 003°28'9 9.0
2014-Jul-22 09:33N 58°58' W 003°18'6 6.3
2014-Jul-22 08:33N 58°54' W 003°27'1717.2
2014-Jul-22 07:33N 58°37' W 003°32'6 5.7
2014-Jul-22 06:33N 58°42' W 003°30'1616.4
2014-Jul-22 05:33N 58°57' W 003°17'1 0.8
2014-Jul-22 04:33N 58°58' W 003°18'0 0.0
2014-Jul-22 03:33N 58°58' W 003°18'0 0.0
2014-Jul-22 02:33N 58°58' W 003°18'0 0.0
2014-Jul-22 01:33N 58°58' W 003°18'0 0.0
2014-Jul-22 00:33N 58°58' W 003°18'0 0.0
2014-Jul-21 23:33N 58°58' W 003°18'0 0.0
2014-Jul-21 22:33N 58°58' W 003°18'0 0.0
2014-Jul-21 21:33N 58°58' W 003°18'0 0.0
2014-Jul-21 20:33N 58°58' W 003°18'0 0.0
2014-Jul-21 20:18N 58°58' W 003°18'0 0.0
2014-Jul-21 19:33N 58°58' W 003°18'1312.6
2014-Jul-21 18:33N 58°47' W 003°29'10 9.8
2014-Jul-21 17:31N 58°37' W 003°32'1010.9
2014-Jul-21 16:34N 58°47' W 003°29'1212.4
2014-Jul-21 15:34N 58°58' W 003°18'0 0.0
2014-Jul-21 14:34N 58°58' W 003°18'1 1.2
2014-Jul-21 13:33N 58°57' W 003°19'1717.1
2014-Jul-21 12:33N 58°41' W 003°33'5 4.6
2014-Jul-21 11:33N 58°37' W 003°32'1313.5
2014-Jul-21 10:34N 58°50' W 003°28'9 9.3
2014-Jul-21 09:33N 58°58' W 003°18'7 6.8
2014-Jul-21 08:33N 58°53' W 003°27'1716.8
2014-Jul-21 07:33N 58°37' W 003°32'6 5.6
2014-Jul-21 06:33N 58°42' W 003°30'1616.5
2014-Jul-21 05:33N 58°57' W 003°18'1 0.5
2014-Jul-21 04:32N 58°58' W 003°18'0 0.0
2014-Jul-21 03:33N 58°58' W 003°18'0 0.0
2014-Jul-21 02:33N 58°58' W 003°18'0 0.0
2014-Jul-21 01:33N 58°58' W 003°18'0 0.0
2014-Jul-21 00:34N 58°58' W 003°18'0 0.0
2014-Jul-20 23:34N 58°58' W 003°18'0 0.0
2014-Jul-20 22:32N 58°58' W 003°18'0 0.0
2014-Jul-20 21:33N 58°58' W 003°18'0 0.0
2014-Jul-20 20:33N 58°58' W 003°18'0 0.0
2014-Jul-20 19:33N 58°58' W 003°18'1110.6
2014-Jul-20 18:33N 58°49' W 003°29'1212.4
2014-Jul-20 17:33N 58°37' W 003°32'9 8.6
2014-Jul-20 16:33N 58°45' W 003°30'1414.1
2014-Jul-20 15:33N 58°58' W 003°18'0 0.0
2014-Jul-20 14:31N 58°58' W 003°18'0 0.0
2014-Jul-20 13:28N 58°58' W 003°18'0 0.0
2014-Jul-20 12:33N 58°58' W 003°18'1212.0
2014-Jul-20 11:33N 58°47' W 003°29'11 9.6
2014-Jul-20 10:26N 58°37' W 003°32'0 0.0
2014-Jul-20 09:32N 58°37' W 003°32'1515.2
2014-Jul-20 08:33N 58°51' W 003°27'8 8.2
2014-Jul-20 07:33N 58°58' W 003°18'0 0.0
2014-Jul-20 06:33N 58°58' W 003°18'0 0.0
2014-Jul-20 05:33N 58°58' W 003°18'0 0.0
2014-Jul-20 04:33N 58°58' W 003°18'0 0.0
2014-Jul-20 03:33N 58°58' W 003°18'0 0.0
2014-Jul-20 02:33N 58°58' W 003°18'0 0.0
2014-Jul-20 01:33N 58°58' W 003°18'0 0.0
2014-Jul-20 00:33N 58°58' W 003°18'0 0.0
2014-Jul-19 23:33N 58°58' W 003°18'0 0.0
2014-Jul-19 22:33N 58°58' W 003°18'  
Track history (hours):
 
Tides and Currents Weather Stations Pressure Air Temp Water Temp Dewpoint Dewpoint Depression Visibility Wind Speed Wind Dir Waves Ship Positions

Hamnavoe

Operator: NorthLink Orkey & Shetland Ferries Ltd

Last reported at 2014-Jul-29 22:33 UTC. Time now 2014-Jul-29 22:54 UTC.
Position N 58°58' W 003°18'.

Length 112 m; draft 4.4 m.

Type: Ship. MMSI: 235449000.

Date/timePositionNaut miles runAvg speedWind from/ knotsBaromVisibWave heightAir tempDewpointWater temp
2014-Jul-29 22:33N 58°58' W 003°18'0 0.0
2014-Jul-29 21:33N 58°58' W 003°18'0 0.0
2014-Jul-29 20:33N 58°58' W 003°18'0 0.0
2014-Jul-29 19:33N 58°58' W 003°18'1212.0
2014-Jul-29 18:34N 58°47' W 003°29'1110.4
2014-Jul-29 17:31N 58°37' W 003°32'1111.7
2014-Jul-29 16:33N 58°48' W 003°30'1211.9
2014-Jul-29 15:34N 58°58' W 003°18'0 0.0
2014-Jul-29 14:33N 58°58' W 003°18'0 0.4
2014-Jul-29 13:33N 58°57' W 003°18'1515.1
2014-Jul-29 12:33N 58°44' W 003°30'7 7.2
2014-Jul-29 11:33N 58°37' W 003°32'1615.8
2014-Jul-29 10:33N 58°52' W 003°28'8 7.6
2014-Jul-29 09:33N 58°58' W 003°18'8 8.0
2014-Jul-29 08:33N 58°52' W 003°28'1515.0
2014-Jul-29 07:33N 58°37' W 003°32'7 7.2
2014-Jul-29 06:33N 58°44' W 003°31'1515.3
2014-Jul-29 05:33N 58°58' W 003°18'0 0.3
2014-Jul-29 04:30N 58°58' W 003°18'0 0.0
2014-Jul-29 03:18N 58°58' W 003°18'0 0.0
2014-Jul-29 02:24N 58°58' W 003°18'0 0.0
2014-Jul-29 01:24N 58°58' W 003°18'0 0.0
2014-Jul-29 00:30N 58°58' W 003°18'0 0.0
2014-Jul-28 23:30N 58°58' W 003°18'0 0.0
2014-Jul-28 22:30N 58°58' W 003°18'0 0.0
2014-Jul-28 21:30N 58°58' W 003°18'0 0.0
2014-Jul-28 20:24N 58°58' W 003°18'0 0.0
2014-Jul-28 19:33N 58°58' W 003°18'1313.3
2014-Jul-28 18:33N 58°46' W 003°29'9 9.3
2014-Jul-28 17:33N 58°37' W 003°32'1110.9
2014-Jul-28 16:34N 58°47' W 003°28'1211.5
2014-Jul-28 15:32N 58°58' W 003°18'0 0.0
2014-Jul-28 14:32N 58°58' W 003°18'1 0.9
2014-Jul-28 13:33N 58°57' W 003°17'1615.6
2014-Jul-28 12:33N 58°43' W 003°30'6 6.0
2014-Jul-28 11:31N 58°37' W 003°32'1515.3
2014-Jul-28 10:33N 58°51' W 003°28'9 8.5
2014-Jul-28 09:33N 58°58' W 003°18'8 8.0
2014-Jul-28 08:33N 58°52' W 003°28'1513.5
2014-Jul-28 07:25N 58°37' W 003°32'7 8.5
2014-Jul-28 06:33N 58°44' W 003°31'1515.2
2014-Jul-28 05:33N 58°58' W 003°18'0 0.3
2014-Jul-28 04:33N 58°58' W 003°18'0 0.0
2014-Jul-28 03:33N 58°58' W 003°18'0 0.0
2014-Jul-28 02:33N 58°58' W 003°18'0 0.0
2014-Jul-28 01:33N 58°58' W 003°18'0 0.0
2014-Jul-28 00:33N 58°58' W 003°18'0 0.0
2014-Jul-27 22:21N 58°58' W 003°18'0 0.0
2014-Jul-27 21:33N 58°58' W 003°18'0 0.0
2014-Jul-27 20:09N 58°58' W 003°18'0 0.0
2014-Jul-27 19:33N 58°58' W 003°18'1111.1
2014-Jul-27 18:33N 58°48' W 003°29'1211.6
2014-Jul-27 17:33N 58°37' W 003°32'1111.5
2014-Jul-27 16:33N 58°48' W 003°29'1111.4
2014-Jul-27 15:33N 58°58' W 003°18'0 0.0
2014-Jul-27 14:33N 58°58' W 003°18'0 0.0
2014-Jul-27 13:33N 58°58' W 003°18'0 0.0
2014-Jul-27 12:33N 58°58' W 003°18'1111.5
2014-Jul-27 11:33N 58°48' W 003°28'1111.2
2014-Jul-27 10:33N 58°37' W 003°32'0 0.0
2014-Jul-27 09:33N 58°37' W 003°32'1515.4
2014-Jul-27 08:33N 58°52' W 003°28'8 7.7
2014-Jul-27 07:30N 58°58' W 003°18'0 0.0
2014-Jul-27 06:33N 58°58' W 003°18'0 0.0
2014-Jul-27 05:30N 58°58' W 003°18'0 0.0
2014-Jul-27 04:33N 58°58' W 003°18'0 0.0
2014-Jul-27 03:33N 58°58' W 003°18'0 0.0
2014-Jul-27 02:33N 58°58' W 003°18'0 0.0
2014-Jul-27 01:33N 58°58' W 003°18'0 0.0
2014-Jul-27 00:30N 58°58' W 003°18'0 0.0
2014-Jul-26 23:30N 58°58' W 003°18'0 0.0
2014-Jul-26 22:30N 58°58' W 003°18'0 0.0
2014-Jul-26 21:24N 58°58' W 003°18'0 0.0
2014-Jul-26 20:30N 58°58' W 003°18'0 0.0
2014-Jul-26 19:31N 58°58' W 003°18'1111.6
2014-Jul-26 18:34N 58°48' W 003°28'1211.8
2014-Jul-26 17:34N 58°37' W 003°32'10 9.7
2014-Jul-26 16:33N 58°46' W 003°28'1312.9
2014-Jul-26 15:33N 58°58' W 003°18'0 0.0
2014-Jul-26 14:33N 58°58' W 003°18'1 1.1
2014-Jul-26 13:33N 58°57' W 003°18'1616.2
2014-Jul-26 12:33N 58°42' W 003°30'5 5.4
2014-Jul-26 11:33N 58°37' W 003°32'1515.5
2014-Jul-26 10:33N 58°52' W 003°27'8 7.7
2014-Jul-26 09:33N 58°58' W 003°18'8 8.5
2014-Jul-26 08:33N 58°51' W 003°28'1514.9
2014-Jul-26 07:33N 58°37' W 003°32'7 6.7
2014-Jul-26 06:33N 58°43' W 003°30'1615.6
2014-Jul-26 05:33N 58°57' W 003°18'0 0.4
2014-Jul-26 04:33N 58°58' W 003°18'0 0.0
2014-Jul-26 03:33N 58°58' W 003°18'0 0.0
2014-Jul-26 02:33N 58°58' W 003°18'0 0.0
2014-Jul-26 01:30N 58°58' W 003°18'0 0.0
2014-Jul-26 00:33N 58°58' W 003°18'0 0.0
2014-Jul-25 23:30N 58°58' W 003°18'0 0.0
2014-Jul-25 22:33N 58°58' W 003°18'0 0.0
2014-Jul-25 21:21N 58°58' W 003°18'0 0.0
2014-Jul-25 20:33N 58°58' W 003°18'0 0.0
2014-Jul-25 19:33N 58°58' W 003°18'1111.4
2014-Jul-25 18:33N 58°48' W 003°29'1211.5
2014-Jul-25 17:33N 58°37' W 003°32'1010.5
2014-Jul-25 16:33N 58°47' W 003°29'1212.3
2014-Jul-25 15:33N 58°58' W 003°18'0 0.0
2014-Jul-25 14:33N 58°58' W 003°18'1 0.7
2014-Jul-25 13:33N 58°57' W 003°17'1616.2
2014-Jul-25 12:33N 58°42' W 003°30'6 5.3
2014-Jul-25 11:28N 58°37' W 003°32'1516.4
2014-Jul-25 10:33N 58°51' W 003°27'8 7.9
2014-Jul-25 09:31N 58°58' W 003°18'8 7.9
2014-Jul-25 08:33N 58°52' W 003°28'1615.5
2014-Jul-25 07:33N 58°37' W 003°32'7 6.6
2014-Jul-25 06:33N 58°43' W 003°30'1615.7
2014-Jul-25 05:33N 58°57' W 003°18'0 0.4
2014-Jul-25 04:29N 58°58' W 003°18'0 0.0
2014-Jul-25 03:29N 58°58' W 003°18'0 0.0
2014-Jul-25 02:29N 58°58' W 003°18'0 0.0
2014-Jul-25 01:29N 58°58' W 003°18'0 0.0
2014-Jul-25 00:29N 58°58' W 003°18'0 0.0
2014-Jul-24 23:29N 58°58' W 003°18'0 0.0
2014-Jul-24 22:32N 58°58' W 003°18'0 0.0
2014-Jul-24 21:29N 58°58' W 003°18'0 0.0
2014-Jul-24 20:29N 58°58' W 003°18'0 0.0
2014-Jul-24 19:29N 58°58' W 003°18'1212.6
2014-Jul-24 18:33N 58°48' W 003°29'11 8.3
2014-Jul-24 17:14N 58°37' W 003°32'1014.1
2014-Jul-24 16:33N 58°46' W 003°29'1313.1
2014-Jul-24 15:33N 58°58' W 003°18'0 0.0
2014-Jul-24 14:28N 58°58' W 003°18'1 1.2
2014-Jul-24 13:33N 58°57' W 003°18'1716.9
2014-Jul-24 12:33N 58°41' W 003°31'5 4.6
2014-Jul-24 11:33N 58°37' W 003°32'1414.2
2014-Jul-24 10:33N 58°51' W 003°29'9 9.1
2014-Jul-24 09:33N 58°58' W 003°18'7 7.5
2014-Jul-24 08:33N 58°53' W 003°28'1616.1
2014-Jul-24 07:33N 58°37' W 003°32'7 6.7
2014-Jul-24 06:33N 58°43' W 003°30'1615.5
2014-Jul-24 05:33N 58°57' W 003°18'0 0.4
2014-Jul-24 04:30N 58°58' W 003°18'0 0.0
2014-Jul-24 03:30N 58°58' W 003°18'0 0.0
2014-Jul-24 02:33N 58°58' W 003°18'0 0.0
2014-Jul-24 01:30N 58°58' W 003°18'0 0.0
2014-Jul-24 00:27N 58°58' W 003°18'0 0.0
2014-Jul-23 23:33N 58°58' W 003°18'0 0.0
2014-Jul-23 22:33N 58°58' W 003°18'0 0.0
2014-Jul-23 21:33N 58°58' W 003°18'0 0.0
2014-Jul-23 20:24N 58°58' W 003°18'0 0.0
2014-Jul-23 19:33N 58°58' W 003°18'1010.2
2014-Jul-23 18:33N 58°49' W 003°29'1312.8
2014-Jul-23 17:33N 58°37' W 003°32'10 9.8
2014-Jul-23 16:33N 58°46' W 003°30'1313.0
2014-Jul-23 15:33N 58°58' W 003°18'0 0.0
2014-Jul-23 14:32N 58°58' W 003°18'0 0.0
2014-Jul-23 13:33N 58°58' W 003°18'1514.7
2014-Jul-23 12:33N 58°44' W 003°30'8 7.7
2014-Jul-23 11:31N 58°37' W 003°32'1515.1
2014-Jul-23 10:33N 58°51' W 003°27'8 8.4
2014-Jul-23 09:34N 58°58' W 003°18'7 7.4
2014-Jul-23 08:34N 58°52' W 003°27'1615.9
2014-Jul-23 07:33N 58°37' W 003°32'6 5.8
2014-Jul-23 06:33N 58°42' W 003°29'1616.1
2014-Jul-23 05:33N 58°57' W 003°17'1 0.8
2014-Jul-23 04:31N 58°58' W 003°18'0 0.0
2014-Jul-23 03:31N 58°58' W 003°18'0 0.0
2014-Jul-23 02:31N 58°58' W 003°18'0 0.0
2014-Jul-23 01:31N 58°58' W 003°18'0 0.0
2014-Jul-23 00:25N 58°58' W 003°18'0 0.0
2014-Jul-22 23:28N 58°58' W 003°18'0 0.0
2014-Jul-22 22:28N 58°58' W 003°18'0 0.0
2014-Jul-22 21:28N 58°58' W 003°18'0 0.0
2014-Jul-22 20:28N 58°58' W 003°18'0 0.0
2014-Jul-22 19:28N 58°58' W 003°18'1112.2
2014-Jul-22 18:33N 58°48' W 003°29'12 8.9
2014-Jul-22 17:15N 58°37' W 003°32'1014.0
2014-Jul-22 16:34N 58°46' W 003°29'1313.0
2014-Jul-22 15:33N 58°58' W 003°18'0 0.0
2014-Jul-22 14:33N 58°58' W 003°18'0 0.1
2014-Jul-22 13:33N 58°58' W 003°18'1515.3
2014-Jul-22 12:33N 58°44' W 003°30'7 7.1
2014-Jul-22 11:33N 58°37' W 003°32'1414.3
2014-Jul-22 10:33N 58°51' W 003°28'9 9.0
2014-Jul-22 09:33N 58°58' W 003°18'6 6.3
2014-Jul-22 08:33N 58°54' W 003°27'1717.2
2014-Jul-22 07:33N 58°37' W 003°32'6 5.7
2014-Jul-22 06:33N 58°42' W 003°30'1616.4
2014-Jul-22 05:33N 58°57' W 003°17'1 0.8
2014-Jul-22 04:33N 58°58' W 003°18'0 0.0
2014-Jul-22 03:33N 58°58' W 003°18'0 0.0
2014-Jul-22 02:33N 58°58' W 003°18'0 0.0
2014-Jul-22 01:33N 58°58' W 003°18'0 0.0
2014-Jul-22 00:33N 58°58' W 003°18'0 0.0
2014-Jul-21 23:33N 58°58' W 003°18'0 0.0
2014-Jul-21 22:33N 58°58' W 003°18'0 0.0
2014-Jul-21 21:33N 58°58' W 003°18'0 0.0
2014-Jul-21 20:33N 58°58' W 003°18'0 0.0
2014-Jul-21 20:18N 58°58' W 003°18'0 0.0
2014-Jul-21 19:33N 58°58' W 003°18'1312.6
2014-Jul-21 18:33N 58°47' W 003°29'10 9.8
2014-Jul-21 17:31N 58°37' W 003°32'1010.9
2014-Jul-21 16:34N 58°47' W 003°29'1212.4
2014-Jul-21 15:34N 58°58' W 003°18'0 0.0
2014-Jul-21 14:34N 58°58' W 003°18'1 1.2
2014-Jul-21 13:33N 58°57' W 003°19'1717.1
2014-Jul-21 12:33N 58°41' W 003°33'5 4.6
2014-Jul-21 11:33N 58°37' W 003°32'1313.5
2014-Jul-21 10:34N 58°50' W 003°28'9 9.3
2014-Jul-21 09:33N 58°58' W 003°18'7 6.8
2014-Jul-21 08:33N 58°53' W 003°27'1716.8
2014-Jul-21 07:33N 58°37' W 003°32'6 5.6
2014-Jul-21 06:33N 58°42' W 003°30'1616.5
2014-Jul-21 05:33N 58°57' W 003°18'1 0.5
2014-Jul-21 04:32N 58°58' W 003°18'0 0.0
2014-Jul-21 03:33N 58°58' W 003°18'0 0.0
2014-Jul-21 02:33N 58°58' W 003°18'0 0.0
2014-Jul-21 01:33N 58°58' W 003°18'0 0.0
2014-Jul-21 00:34N 58°58' W 003°18'0 0.0
2014-Jul-20 23:34N 58°58' W 003°18'0 0.0
2014-Jul-20 22:32N 58°58' W 003°18'0 0.0
2014-Jul-20 21:33N 58°58' W 003°18'0 0.0
2014-Jul-20 20:33N 58°58' W 003°18'0 0.0
2014-Jul-20 19:33N 58°58' W 003°18'1110.6
2014-Jul-20 18:33N 58°49' W 003°29'1212.4
2014-Jul-20 17:33N 58°37' W 003°32'9 8.6
2014-Jul-20 16:33N 58°45' W 003°30'1414.1
2014-Jul-20 15:33N 58°58' W 003°18'0 0.0
2014-Jul-20 14:31N 58°58' W 003°18'0 0.0
2014-Jul-20 13:28N 58°58' W 003°18'0 0.0
2014-Jul-20 12:33N 58°58' W 003°18'1212.0
2014-Jul-20 11:33N 58°47' W 003°29'11 9.6
2014-Jul-20 10:26N 58°37' W 003°32'0 0.0
2014-Jul-20 09:32N 58°37' W 003°32'1515.2
2014-Jul-20 08:33N 58°51' W 003°27'8 8.2
2014-Jul-20 07:33N 58°58' W 003°18'0 0.0
2014-Jul-20 06:33N 58°58' W 003°18'0 0.0
2014-Jul-20 05:33N 58°58' W 003°18'0 0.0
2014-Jul-20 04:33N 58°58' W 003°18'0 0.0
2014-Jul-20 03:33N 58°58' W 003°18'0 0.0
2014-Jul-20 02:33N 58°58' W 003°18'0 0.0
2014-Jul-20 01:33N 58°58' W 003°18'0 0.0
2014-Jul-20 00:33N 58°58' W 003°18'0 0.0
2014-Jul-19 23:33N 58°58' W 003°18'0 0.0
2014-Jul-19 22:33N 58°58' W 003°18'  

Dump ship's entire track history